Trudne lądowanie B738 Enter Air w Salzburgu

B738 Enter Air lądujący w Salzburgu

W ostatnich dniach w całej Europie można odczuć skutki orkanu Herwart, który oczywiście również w znaczącym stopniu wpływa na komunikację lotniczą. Jego siłę na własnej skórze mogli poznać pasażerowie i załoga samolotu linii Enter Air.

29 października, B738 (znaki rejestracyjne SP-ESA) wykonywał rejs nr ENT503 z Frankfurtu do Salzburga. Podczas podejścia do pasa 33 lotniska docelowego statek powietrzny zmagał się z silnymi podmuchami wiatru dochodzącymi do 43 węzłów.

Przed samym przyziemiem w wyniku uskoku wiatru samolot przechylił się na prawe skrzydło, a następnie mocno przyziemił i odbił się od pasa startowego przechodząc na wznoszenie. Załoga przekierowała rejs do Frankfurtu gdzie ok. 70 min później B738 bezpiecznie wylądował, a rejs ENT503 został odwołany. W tym czasie w Salzburgu próbowało lądować kilka innych samolotów, które kolejno kierowały się na lotniska zapasowe.



Metar-y:
LOWS 291120Z 28026G41KT 250V310 9000 SHRA FEW020 SCT035 BKN055 13/07 Q1004 TEMPO 4000 =
LOWS 291050Z 29027G47KT 250V310 9999 -SHRA FEW028 BKN050 13/07 Q1004 TEMPO 4000 SHRA =
LOWS 291020Z 28023G39KT 230V310 9999 SHRA FEW028 BKN045 13/07 Q1004 TEMPO 4000 =
LOWS 290950Z 28026G43KT 230V320 9999 -SHRA FEW040 BKN050 14/07 Q1003 TEMPO 4000 SHRA =
LOWS 290920Z 27024G40KT 230V310 9999 FEW035 BKN045 14/07 Q1003 TEMPO 30035KT 4000 SHRA =

LOWS 290850Z 28026G43KT 240V300 9999 -RA FEW030 SCT045 BKN090 13/08 Q1002 TEMPO 4000 SHRA =
LOWS 290820Z 28025G44KT 250V310 9999 -RA FEW025 BKN060 14/08 Q1003 TEMPO 4000 SHRA =
LOWS 290750Z 29026G38KT 9999 BKN040 15/08 Q1003 NOSIG =
LOWS 290720Z 28027G46KT 240V310 9999 -RA SCT040 BKN065 16/08 Q1002 NOSIG =
LOWS 290650Z 27019G35KT 220V310 9999 FEW035 BKN070 16/08 Q1002 NOSIG =

Więcej informacji na temat tego zdarzenia dostępnych jest na stronie www.avherald.com

Źródło: avherald
comments powered by Disqus